Mama, Russia
Current Conditions -  °F | °C
As of 8:00 PM on Friday 19 Dec 2014 (Local Time) from UIAA Reporting Station
Few Clouds Few Clouds  
Wind Chill: -4°   Ceiling: Unl
Heat Index: -4°   Visibility: 6mi
Dew Point: -9°   Wind: 2mph
Humidity: 78%   Direction: NA
Pressure: 30.12"   Gusts: NA
Location:  58.31°N, 112.9°E
Report Text: UIAA 191200Z VRB01MPS 9999 FEW100 M20/M23 Q1020 NOSIG RMKQFE706 29CLRD70
Loading
Personal Weather Stations






























Interactive Weather Map New forecast layout! Learn more

10-Day Weather Forecast

Advertisements
Track Severe Weather on mobile